createdAt,value
2019-01-27T00:01:31.231Z,-4.01
2019-01-27T00:03:59.635Z,-3.90
2019-01-27T00:06:28.916Z,-3.88
2019-01-27T00:08:56.633Z,-3.92
2019-01-27T00:11:24.938Z,-3.86
2019-01-27T00:13:52.775Z,-3.94
2019-01-27T00:16:20.504Z,-3.84
2019-01-27T00:18:48.977Z,-3.83
2019-01-27T00:21:16.749Z,-3.83
2019-01-27T00:23:45.000Z,-3.87
2019-01-27T00:26:13.631Z,-3.94
2019-01-27T00:28:41.378Z,-3.85
2019-01-27T00:31:09.355Z,-3.94
2019-01-27T00:33:37.361Z,-3.96
2019-01-27T00:36:05.101Z,-3.98
2019-01-27T00:38:32.951Z,-3.99
2019-01-27T00:41:00.801Z,-3.94
2019-01-27T00:43:28.609Z,-3.96
2019-01-27T00:45:56.441Z,-3.84
2019-01-27T00:48:24.373Z,-3.89
2019-01-27T00:50:52.137Z,-3.84
2019-01-27T00:53:20.187Z,-3.85
2019-01-27T00:55:49.408Z,-3.79
2019-01-27T00:58:17.473Z,-3.75
2019-01-27T01:00:45.269Z,-3.78
2019-01-27T01:03:12.988Z,-3.78
2019-01-27T01:05:40.833Z,-3.95
2019-01-27T01:08:08.625Z,-3.95
2019-01-27T01:10:36.488Z,-3.95
2019-01-27T01:13:05.737Z,-4.00
2019-01-27T01:15:33.757Z,-4.06
2019-01-27T01:18:01.446Z,-4.16
2019-01-27T01:20:29.944Z,-4.24
2019-01-27T01:22:58.423Z,-4.36
2019-01-27T01:25:26.443Z,-4.41
2019-01-27T01:27:54.078Z,-4.49
2019-01-27T01:30:24.465Z,-4.60
2019-01-27T01:32:52.882Z,-4.66
2019-01-27T01:35:20.604Z,-4.72
2019-01-27T01:37:48.611Z,-4.84
2019-01-27T01:40:17.017Z,-4.88
2019-01-27T01:42:44.747Z,-4.91
2019-01-27T01:45:20.531Z,-4.93
2019-01-27T01:47:48.241Z,-4.97
2019-01-27T01:50:15.938Z,-5.01
2019-01-27T01:52:43.599Z,-5.03
2019-01-27T01:55:11.831Z,-5.04
2019-01-27T01:57:39.596Z,-5.08
2019-01-27T02:00:10.105Z,-5.07
2019-01-27T02:02:38.206Z,-5.10
2019-01-27T02:05:06.520Z,-5.12
2019-01-27T02:07:34.057Z,-5.16
2019-01-27T02:10:01.789Z,-5.18
2019-01-27T02:12:29.402Z,-5.25
2019-01-27T02:14:57.341Z,-5.35
2019-01-27T02:17:25.148Z,-5.38
2019-01-27T02:19:52.846Z,-5.42
2019-01-27T02:22:20.652Z,-5.44
2019-01-27T02:24:48.316Z,-5.52
2019-01-27T02:27:16.200Z,-5.53
2019-01-27T02:29:43.890Z,-5.56
2019-01-27T02:32:11.539Z,-5.64
2019-01-27T02:34:39.098Z,-5.69
2019-01-27T02:37:07.334Z,-5.71
2019-01-27T02:39:35.067Z,-5.79
2019-01-27T02:42:02.797Z,-5.84
2019-01-27T02:44:30.608Z,-5.78
2019-01-27T02:46:58.334Z,-5.74
2019-01-27T02:49:26.228Z,-5.78
2019-01-27T02:51:54.200Z,-5.78
2019-01-27T02:54:21.880Z,-5.77
2019-01-27T02:56:49.810Z,-5.74
2019-01-27T02:59:18.051Z,-5.72
2019-01-27T03:01:45.686Z,-5.91
2019-01-27T03:04:13.331Z,-5.96
2019-01-27T03:06:53.193Z,-6.07
2019-01-27T03:09:27.666Z,-6.07
2019-01-27T03:11:55.970Z,-6.06
2019-01-27T03:14:23.768Z,-6.11
2019-01-27T03:16:52.979Z,-6.12
2019-01-27T03:19:21.092Z,-6.14
2019-01-27T03:21:48.808Z,-6.02
2019-01-27T03:24:16.644Z,-6.07
2019-01-27T03:26:44.401Z,-6.18
2019-01-27T03:29:12.465Z,-6.24
2019-01-27T03:31:41.295Z,-6.02
2019-01-27T03:34:09.104Z,-5.92
2019-01-27T03:36:37.309Z,-5.95
2019-01-27T03:39:09.028Z,-5.98
2019-01-27T03:41:37.235Z,-6.09
2019-01-27T03:44:05.936Z,-6.06
2019-01-27T03:46:33.772Z,-6.00
2019-01-27T03:49:01.510Z,-6.02
2019-01-27T03:51:29.183Z,-6.04
2019-01-27T03:53:58.349Z,-6.00
2019-01-27T03:56:26.065Z,-6.07
2019-01-27T03:58:53.853Z,-6.10
2019-01-27T04:01:22.334Z,-5.89
2019-01-27T04:03:50.580Z,-6.01
2019-01-27T04:06:19.087Z,-6.06
2019-01-27T04:08:46.824Z,-6.18
2019-01-27T04:11:17.078Z,-6.28
2019-01-27T04:13:44.770Z,-6.38
2019-01-27T04:16:12.527Z,-6.30
2019-01-27T04:18:40.376Z,-6.17
2019-01-27T04:21:08.027Z,-6.21
2019-01-27T04:23:35.828Z,-6.26
2019-01-27T04:26:03.722Z,-6.40
2019-01-27T04:28:31.697Z,-6.35
2019-01-27T04:30:59.629Z,-6.32
2019-01-27T04:33:27.508Z,-6.32
2019-01-27T04:35:55.265Z,-6.33
2019-01-27T04:38:22.965Z,-6.33
2019-01-27T04:40:50.586Z,-6.36
2019-01-27T04:43:18.758Z,-6.27
2019-01-27T04:45:46.839Z,-6.31
2019-01-27T04:48:14.611Z,-6.45
2019-01-27T04:50:44.167Z,-6.41
2019-01-27T04:53:12.626Z,-6.32
2019-01-27T04:55:40.270Z,-6.22
2019-01-27T04:58:08.924Z,-6.41
2019-01-27T05:00:36.814Z,-6.48
2019-01-27T05:03:12.741Z,-6.51
2019-01-27T05:05:41.076Z,-6.50
2019-01-27T05:08:09.090Z,-6.41
2019-01-27T05:10:36.757Z,-6.47
2019-01-27T05:13:04.471Z,-6.50
2019-01-27T05:15:32.460Z,-6.40
2019-01-27T05:18:00.849Z,-6.49
2019-01-27T05:20:28.544Z,-6.46
2019-01-27T05:22:56.526Z,-6.52
2019-01-27T05:25:25.166Z,-6.57
2019-01-27T05:27:52.761Z,-6.47
2019-01-27T05:30:20.759Z,-6.49
2019-01-27T05:32:48.668Z,-6.57
2019-01-27T05:35:16.685Z,-6.62
2019-01-27T05:37:44.679Z,-6.49
2019-01-27T05:40:12.868Z,-6.53
2019-01-27T05:42:41.316Z,-6.55
2019-01-27T05:45:11.366Z,-6.49
2019-01-27T05:47:40.192Z,-6.41
2019-01-27T05:50:10.005Z,-6.35
2019-01-27T05:52:37.916Z,-6.43
2019-01-27T05:55:06.366Z,-6.34
2019-01-27T05:57:35.153Z,-6.22
2019-01-27T06:00:04.206Z,-6.27
2019-01-27T06:02:32.475Z,-6.16
2019-01-27T06:05:00.589Z,-6.05
2019-01-27T06:07:30.337Z,-5.93
2019-01-27T06:09:59.884Z,-5.82
2019-01-27T06:12:28.292Z,-5.81
2019-01-27T06:15:00.844Z,-5.73
2019-01-27T06:17:29.156Z,-5.66
2019-01-27T06:19:57.331Z,-5.57
2019-01-27T06:22:25.740Z,-5.46
2019-01-27T06:24:53.854Z,-5.31
2019-01-27T06:27:22.450Z,-5.20
2019-01-27T06:29:50.869Z,-5.03
2019-01-27T06:32:38.195Z,-5.00
2019-01-27T06:35:06.535Z,-4.76
2019-01-27T06:37:35.409Z,-4.83
2019-01-27T06:40:04.021Z,-4.89
2019-01-27T06:42:32.227Z,-4.70
2019-01-27T06:45:00.183Z,-4.50
2019-01-27T06:47:30.413Z,-4.35
2019-01-27T06:49:58.353Z,-4.08
2019-01-27T06:52:26.583Z,-4.00
2019-01-27T06:54:55.678Z,-3.82
2019-01-27T06:57:25.099Z,-3.81
2019-01-27T07:00:00.363Z,-3.83
2019-01-27T07:02:43.830Z,-3.42
2019-01-27T07:05:31.446Z,-3.32
2019-01-27T07:08:08.563Z,-3.63
2019-01-27T07:10:56.610Z,-3.43
2019-01-27T07:13:42.124Z,-3.62
2019-01-27T07:16:30.102Z,-3.77
2019-01-27T07:19:21.169Z,-3.62
2019-01-27T07:22:21.121Z,-3.88
2019-01-27T07:25:07.645Z,-3.69
2019-01-27T07:27:48.613Z,-2.68
2019-01-27T07:30:37.343Z,-2.57
2019-01-27T07:33:42.963Z,-2.19
2019-01-27T07:36:27.011Z,-1.94
2019-01-27T07:39:08.540Z,-2.61
2019-01-27T07:42:02.081Z,-2.43
2019-01-27T07:44:46.103Z,-1.92
2019-01-27T07:47:47.145Z,-1.34
2019-01-27T07:50:33.592Z,-1.45
2019-01-27T07:53:26.021Z,-1.45
2019-01-27T07:56:15.063Z,-0.89
2019-01-27T07:58:58.041Z,-0.58
2019-01-27T08:01:48.798Z,-0.54
2019-01-27T08:04:30.957Z,-0.91
2019-01-27T08:07:17.920Z,-0.47
2019-01-27T08:10:08.785Z,-0.14
2019-01-27T08:12:54.655Z,-0.54
2019-01-27T08:15:40.007Z,-0.81
2019-01-27T08:18:33.340Z,0.05
2019-01-27T08:21:17.217Z,0.10
2019-01-27T08:24:12.232Z,-0.06
2019-01-27T08:27:06.034Z,0.18
2019-01-27T08:30:02.808Z,-0.34
2019-01-27T08:32:49.856Z,-0.30
2019-01-27T08:35:47.067Z,-0.13
2019-01-27T08:38:35.940Z,0.13
2019-01-27T08:41:33.937Z,0.06
2019-01-27T08:44:40.784Z,-0.15
2019-01-27T08:47:12.892Z,-0.41
2019-01-27T08:49:45.258Z,-0.45
2019-01-27T08:52:14.416Z,-0.12
2019-01-27T08:54:43.288Z,0.08
2019-01-27T08:57:12.255Z,0.11
2019-01-27T08:59:40.774Z,0.32
2019-01-27T09:02:40.105Z,0.43
2019-01-27T09:05:22.279Z,-0.17
2019-01-27T09:08:10.480Z,0.26
2019-01-27T09:10:50.476Z,0.60
2019-01-27T09:13:39.951Z,0.33
2019-01-27T09:16:36.654Z,0.37
2019-01-27T09:19:34.431Z,0.66
2019-01-27T09:22:33.927Z,0.34
2019-01-27T09:25:30.255Z,0.38
2019-01-27T09:28:26.378Z,0.46
2019-01-27T09:31:13.719Z,0.67
2019-01-27T09:33:52.219Z,1.23
2019-01-27T09:36:39.663Z,1.28
2019-01-27T09:39:17.121Z,0.98
2019-01-27T09:41:55.684Z,1.26
2019-01-27T09:44:46.949Z,1.52
2019-01-27T09:47:31.513Z,1.37
2019-01-27T09:50:07.893Z,1.53
2019-01-27T09:52:56.234Z,1.51
2019-01-27T09:55:53.416Z,1.29
2019-01-27T09:58:39.641Z,1.84
2019-01-27T10:01:22.637Z,1.86
2019-01-27T10:04:20.071Z,1.97
2019-01-27T10:06:56.428Z,2.18
2019-01-27T10:09:48.249Z,2.18
2019-01-27T10:12:29.409Z,2.31
2019-01-27T10:15:18.422Z,2.20
2019-01-27T10:18:03.151Z,2.44
2019-01-27T10:20:53.974Z,2.60
2019-01-27T10:23:54.666Z,3.04
2019-01-27T10:26:40.174Z,3.21
2019-01-27T10:29:29.998Z,3.17
2019-01-27T10:32:16.534Z,3.32
2019-01-27T10:34:59.475Z,3.58
2019-01-27T10:37:39.289Z,4.21
2019-01-27T10:40:23.707Z,4.15
2019-01-27T10:43:10.649Z,3.80
2019-01-27T10:45:58.774Z,3.83
2019-01-27T10:48:54.583Z,3.73
2019-01-27T10:51:42.836Z,3.59
2019-01-27T10:54:31.473Z,3.80
2019-01-27T10:57:11.922Z,3.68
2019-01-27T10:59:57.532Z,4.35
2019-01-27T11:02:53.764Z,4.16
2019-01-27T11:05:29.854Z,4.03
2019-01-27T11:08:07.432Z,3.95
2019-01-27T11:10:54.545Z,3.95
2019-01-27T11:13:51.426Z,4.01
2019-01-27T11:16:42.804Z,3.85
2019-01-27T11:19:30.905Z,4.14
2019-01-27T11:22:27.370Z,4.00
2019-01-27T11:25:10.935Z,4.19
2019-01-27T11:28:07.877Z,4.13
2019-01-27T11:30:49.073Z,4.01
2019-01-27T11:33:54.914Z,3.99
2019-01-27T11:36:44.568Z,4.16
2019-01-27T11:39:41.177Z,4.12
2019-01-27T11:42:32.781Z,4.28
2019-01-27T11:45:27.640Z,4.31
2019-01-27T11:48:29.251Z,4.18
2019-01-27T11:51:03.783Z,4.36
2019-01-27T11:53:31.834Z,4.63
2019-01-27T11:56:01.947Z,4.71
2019-01-27T11:58:30.916Z,4.50
2019-01-27T12:01:03.942Z,4.53
2019-01-27T12:03:35.703Z,4.47
2019-01-27T12:06:05.498Z,4.72
2019-01-27T12:08:33.407Z,4.69
2019-01-27T12:11:01.733Z,4.58
2019-01-27T12:13:31.819Z,4.65
2019-01-27T12:15:59.890Z,4.65
2019-01-27T12:18:30.190Z,4.62
2019-01-27T12:21:01.250Z,4.78
2019-01-27T12:23:29.231Z,4.63
2019-01-27T12:25:57.938Z,4.66
2019-01-27T12:28:27.613Z,4.72
2019-01-27T12:30:57.030Z,4.71
2019-01-27T12:33:27.068Z,4.84
2019-01-27T12:35:55.659Z,4.89
2019-01-27T12:38:24.837Z,4.71
2019-01-27T12:40:55.201Z,4.66
2019-01-27T12:43:25.156Z,4.66
2019-01-27T12:45:54.475Z,4.73
2019-01-27T12:48:24.585Z,4.88
2019-01-27T12:50:53.143Z,4.88
2019-01-27T12:53:22.226Z,4.99
2019-01-27T12:55:51.117Z,5.06
2019-01-27T12:58:19.085Z,4.99
2019-01-27T13:00:51.669Z,4.76
2019-01-27T13:03:21.529Z,4.74
2019-01-27T13:05:51.422Z,4.77
2019-01-27T13:08:20.405Z,4.66
2019-01-27T13:10:49.726Z,4.66
2019-01-27T13:13:20.949Z,4.54
2019-01-27T13:15:51.958Z,4.49
2019-01-27T13:18:20.722Z,4.42
2019-01-27T13:20:59.378Z,4.36
2019-01-27T13:23:29.478Z,4.37
2019-01-27T13:25:57.767Z,4.36
2019-01-27T13:28:27.777Z,4.43
2019-01-27T13:30:59.461Z,4.41
2019-01-27T13:33:37.381Z,4.37
2019-01-27T13:36:10.538Z,4.41
2019-01-27T13:38:42.059Z,4.21
2019-01-27T13:41:14.173Z,4.10
2019-01-27T13:43:52.052Z,3.97
2019-01-27T13:46:22.483Z,3.96
2019-01-27T13:48:51.523Z,4.05
2019-01-27T13:51:19.465Z,3.78
2019-01-27T13:53:52.010Z,3.64
2019-01-27T13:56:19.991Z,3.37
2019-01-27T13:58:49.372Z,3.47
2019-01-27T14:01:18.304Z,3.26
2019-01-27T14:03:46.791Z,3.16
2019-01-27T14:06:18.305Z,3.12
2019-01-27T14:08:46.658Z,3.00
2019-01-27T14:11:16.538Z,3.35
2019-01-27T14:13:45.233Z,3.51
2019-01-27T14:16:14.033Z,3.25
2019-01-27T14:18:43.281Z,2.90
2019-01-27T14:21:16.520Z,2.79
2019-01-27T14:23:44.223Z,2.57
2019-01-27T14:26:13.304Z,2.46
2019-01-27T14:28:41.421Z,2.38
2019-01-27T14:31:09.929Z,2.31
2019-01-27T14:33:37.997Z,2.18
2019-01-27T14:36:06.357Z,1.95
2019-01-27T14:38:34.600Z,1.89
2019-01-27T14:41:03.405Z,1.71
2019-01-27T14:49:05.268Z,0.99
2019-01-27T14:51:33.134Z,0.91
2019-01-27T14:54:01.666Z,0.90
2019-01-27T14:56:31.518Z,0.82
2019-01-27T14:58:59.318Z,0.69
2019-01-27T15:01:27.402Z,0.64
2019-01-27T15:03:55.287Z,0.71
2019-01-27T15:06:23.208Z,0.62
2019-01-27T15:08:51.420Z,0.53
2019-01-27T15:11:19.295Z,0.46
2019-01-27T15:13:47.107Z,0.29
2019-01-27T15:16:14.931Z,0.14
2019-01-27T15:18:43.536Z,0.05
2019-01-27T15:21:18.901Z,-0.06
2019-01-27T15:23:51.119Z,-0.14
2019-01-27T15:26:19.391Z,-0.32
2019-01-27T15:28:47.298Z,-0.40
2019-01-27T15:31:15.804Z,-0.48
2019-01-27T15:33:44.004Z,-0.57
2019-01-27T15:36:12.129Z,-0.65
2019-01-27T15:38:39.859Z,-0.78
2019-01-27T15:41:14.763Z,-0.84
2019-01-27T15:43:48.580Z,-0.90
2019-01-27T15:46:12.627Z,-0.92
2019-01-27T15:48:41.145Z,-0.94
2019-01-27T15:51:09.054Z,-0.95
2019-01-27T15:53:37.558Z,-0.97
2019-01-27T15:56:05.617Z,-0.97
2019-01-27T15:58:33.326Z,-1.02
2019-01-27T16:01:01.343Z,-1.01
2019-01-27T16:03:29.174Z,-1.07
2019-01-27T16:05:57.790Z,-1.07
2019-01-27T16:08:25.818Z,-1.08
2019-01-27T16:10:54.750Z,-1.17
2019-01-27T16:13:22.740Z,-1.27
2019-01-27T16:15:50.562Z,-1.28
2019-01-27T16:18:18.522Z,-1.13
2019-01-27T16:20:47.867Z,-1.09
2019-01-27T16:23:35.131Z,-1.06
2019-01-27T16:26:06.049Z,-1.17
2019-01-27T16:28:34.507Z,-1.14
2019-01-27T16:31:20.753Z,-1.12
2019-01-27T16:34:14.971Z,-1.14
2019-01-27T16:36:43.023Z,-1.14
2019-01-27T16:39:11.991Z,-1.09
2019-01-27T16:41:40.267Z,-1.14
2019-01-27T16:44:09.348Z,-1.26
2019-01-27T16:46:37.658Z,-1.26
2019-01-27T16:49:06.503Z,-1.29
2019-01-27T16:51:34.717Z,-1.31
2019-01-27T16:54:02.513Z,-1.26
2019-01-27T16:56:32.863Z,-1.30
2019-01-27T16:59:01.174Z,-1.46
2019-01-27T17:01:29.284Z,-1.42
2019-01-27T17:03:58.814Z,-1.38
2019-01-27T17:06:27.455Z,-1.46
2019-01-27T17:08:55.296Z,-1.43
2019-01-27T17:11:23.015Z,-1.45
2019-01-27T17:13:51.091Z,-1.50
2019-01-27T17:16:20.933Z,-1.59
2019-01-27T17:18:53.133Z,-1.52
2019-01-27T17:21:21.457Z,-1.40
2019-01-27T17:23:49.445Z,-1.25
2019-01-27T17:26:17.483Z,-1.45
2019-01-27T17:28:48.327Z,-1.50
2019-01-27T17:31:16.511Z,-1.49
2019-01-27T17:33:44.206Z,-1.51
2019-01-27T17:36:12.242Z,-1.54
2019-01-27T17:38:41.000Z,-1.53
2019-01-27T17:41:10.473Z,-1.47
2019-01-27T17:43:38.278Z,-1.46
2019-01-27T17:50:02.104Z,-0.96
2019-01-27T17:52:29.867Z,-0.61
2019-01-27T17:54:59.902Z,-0.54
2019-01-27T17:57:53.839Z,-0.53
2019-01-27T18:00:40.019Z,-0.73
2019-01-27T18:03:18.404Z,-1.01
2019-01-27T18:05:55.321Z,-1.14
2019-01-27T18:08:33.297Z,-1.12
2019-01-27T18:11:28.250Z,-1.14
2019-01-27T18:14:19.276Z,-1.11
2019-01-27T18:16:50.289Z,-1.26
2019-01-27T18:19:18.390Z,-1.33
2019-01-27T18:21:46.619Z,-1.31
2019-01-27T18:24:15.698Z,-1.21
2019-01-27T18:26:44.838Z,-1.35
2019-01-27T18:29:12.950Z,-1.47
2019-01-27T18:31:41.904Z,-1.20
2019-01-27T18:34:10.030Z,-1.46
2019-01-27T18:36:38.064Z,-1.50
2019-01-27T18:39:10.706Z,-1.50
2019-01-27T18:41:39.044Z,-1.49
2019-01-27T18:44:07.607Z,-1.50
2019-01-27T18:46:37.236Z,-1.62
2019-01-27T18:49:05.796Z,-1.72
2019-01-27T18:51:33.850Z,-1.82
2019-01-27T18:54:24.378Z,-1.91
2019-01-27T18:57:16.685Z,-1.97
2019-01-27T19:00:02.465Z,-1.87
2019-01-27T19:02:55.908Z,-1.98
2019-01-27T19:05:32.442Z,-1.97
2019-01-27T19:08:32.609Z,-1.94
2019-01-27T19:11:10.920Z,-1.97
2019-01-27T19:13:58.727Z,-2.02
2019-01-27T19:16:49.889Z,-1.97
2019-01-27T19:19:37.209Z,-2.04
2019-01-27T19:22:30.521Z,-2.06
2019-01-27T19:25:18.172Z,-2.00
2019-01-27T19:28:04.436Z,-2.12
2019-01-27T19:30:36.800Z,-1.89
2019-01-27T19:33:25.587Z,-1.79
2019-01-27T19:36:11.413Z,-1.93
2019-01-27T19:39:13.036Z,-2.10
2019-01-27T19:41:53.242Z,-1.94
2019-01-27T19:44:35.242Z,-1.68
2019-01-27T19:47:21.606Z,-1.60
2019-01-27T19:50:07.710Z,-1.59
2019-01-27T19:53:13.130Z,-1.65
2019-01-27T19:56:00.526Z,-1.65
2019-01-27T19:58:48.221Z,-1.70
2019-01-27T20:01:25.719Z,-1.70
2019-01-27T20:04:10.827Z,-1.71
2019-01-27T20:07:10.550Z,-1.60
2019-01-27T20:10:13.548Z,-1.76
2019-01-27T20:13:08.313Z,-1.78
2019-01-27T20:15:49.547Z,-1.91
2019-01-27T20:18:49.743Z,-1.98
2019-01-27T20:21:25.715Z,-1.98
2019-01-27T20:24:21.435Z,-2.01
2019-01-27T20:27:10.541Z,-2.05
2019-01-27T20:30:07.008Z,-2.05
2019-01-27T20:32:54.648Z,-2.13
2019-01-27T20:35:37.457Z,-2.16
2019-01-27T20:38:25.449Z,-2.19
2019-01-27T20:41:15.892Z,-2.10
2019-01-27T20:44:01.992Z,-2.04
2019-01-27T20:46:48.131Z,-1.98
2019-01-27T20:49:34.381Z,-1.91
2019-01-27T20:52:10.369Z,-1.84
2019-01-27T20:54:50.512Z,-1.68
2019-01-27T20:57:35.137Z,-2.05
2019-01-27T21:00:23.158Z,-2.27
2019-01-27T21:03:11.476Z,-2.28
2019-01-27T21:06:03.808Z,-2.34
2019-01-27T21:08:38.228Z,-2.41
2019-01-27T21:11:26.512Z,-2.47
2019-01-27T21:14:17.532Z,-2.51
2019-01-27T21:16:58.484Z,-2.52
2019-01-27T21:19:44.601Z,-2.34
2019-01-27T21:22:12.577Z,-2.25
2019-01-27T21:24:40.450Z,-2.16
2019-01-27T21:27:08.609Z,-2.03
2019-01-27T21:29:36.396Z,-1.69
2019-01-27T21:32:04.359Z,-1.68
2019-01-27T21:34:32.533Z,-1.97
2019-01-27T21:37:00.330Z,-1.86
2019-01-27T21:39:28.215Z,-2.00
2019-01-27T21:41:56.292Z,-2.11
2019-01-27T21:44:23.928Z,-2.20
2019-01-27T21:46:51.686Z,-2.21
2019-01-27T21:49:19.496Z,-2.25
2019-01-27T21:51:47.284Z,-2.23
2019-01-27T21:54:15.071Z,-2.28
2019-01-27T21:56:43.213Z,-2.35
2019-01-27T21:59:11.066Z,-2.51
2019-01-27T22:01:38.917Z,-2.58
2019-01-27T22:04:06.645Z,-2.43
2019-01-27T22:06:34.335Z,-2.42
2019-01-27T22:09:02.622Z,-2.34
2019-01-27T22:11:30.621Z,-2.38
2019-01-27T22:14:22.674Z,-2.39
2019-01-27T22:16:50.259Z,-2.41
2019-01-27T22:19:18.471Z,-2.36
2019-01-27T22:21:46.546Z,-2.47
2019-01-27T22:24:14.175Z,-2.46
2019-01-27T22:26:42.124Z,-2.40
2019-01-27T22:29:09.794Z,-2.42
2019-01-27T22:31:37.362Z,-2.36
2019-01-27T22:34:06.109Z,-2.39
2019-01-27T22:36:33.970Z,-2.32
2019-01-27T22:39:01.675Z,-2.24
2019-01-27T22:41:29.408Z,-2.05
2019-01-27T22:43:57.229Z,-1.91
2019-01-27T22:46:25.001Z,-1.91
2019-01-27T22:48:52.791Z,-1.97
2019-01-27T22:51:20.503Z,-1.93
2019-01-27T22:53:48.331Z,-1.83
2019-01-27T22:56:15.950Z,-1.68
2019-01-27T22:58:43.647Z,-1.57
2019-01-27T23:01:14.703Z,-1.38
2019-01-27T23:03:48.163Z,-1.14
2019-01-27T23:06:16.042Z,-0.72
2019-01-27T23:08:44.043Z,-0.59
2019-01-27T23:11:11.813Z,-1.08
2019-01-27T23:13:39.718Z,-1.56
2019-01-27T23:16:07.350Z,-1.83
2019-01-27T23:18:35.056Z,-1.88
2019-01-27T23:21:02.696Z,-1.97
2019-01-27T23:23:30.577Z,-2.08
2019-01-27T23:25:59.096Z,-2.05
2019-01-27T23:28:27.180Z,-1.92
2019-01-27T23:30:54.899Z,-1.99
2019-01-27T23:33:22.804Z,-2.03
2019-01-27T23:35:50.578Z,-2.07
2019-01-27T23:38:18.230Z,-1.99
2019-01-27T23:40:45.792Z,-2.01
2019-01-27T23:43:13.440Z,-1.98
2019-01-27T23:45:41.007Z,-1.96
2019-01-27T23:48:08.727Z,-1.81
2019-01-27T23:50:36.463Z,-1.79
2019-01-27T23:53:04.269Z,-1.60
2019-01-27T23:55:32.098Z,-1.62
2019-01-27T23:57:59.752Z,-1.65
